sensor_id;sensor_type;location;lat;lon;timestamp;pressure;altitude;pressure_sealevel;temperature;humidity
65151;BME280;51918;51.856;0.150;2022-10-16T00:03:06;99610.19;;;11.54;64.48
65151;BME280;51918;51.856;0.150;2022-10-16T00:08:08;99611.44;;;11.30;65.73
65151;BME280;51918;51.856;0.150;2022-10-16T00:13:09;99618.41;;;11.36;65.32
65151;BME280;51918;51.856;0.150;2022-10-16T00:18:11;99616.06;;;11.41;64.99
65151;BME280;51918;51.856;0.150;2022-10-16T00:23:12;99630.31;;;11.44;64.74
65151;BME280;51918;51.856;0.150;2022-10-16T00:28:12;99634.13;;;11.20;65.90
65151;BME280;51918;51.856;0.150;2022-10-16T00:33:14;99631.50;;;11.41;64.70
65151;BME280;51918;51.856;0.150;2022-10-16T00:38:15;99635.53;;;11.50;64.50
65151;BME280;51918;51.856;0.150;2022-10-16T00:43:36;99635.63;;;11.36;64.54
65151;BME280;51918;51.856;0.150;2022-10-16T00:48:38;99648.47;;;11.29;65.20
65151;BME280;51918;51.856;0.150;2022-10-16T00:53:38;99638.63;;;11.39;64.57
65151;BME280;51918;51.856;0.150;2022-10-16T00:58:39;99640.31;;;11.25;64.51
65151;BME280;51918;51.856;0.150;2022-10-16T01:03:41;99632.81;;;11.30;63.89
65151;BME280;51918;51.856;0.150;2022-10-16T01:08:49;99644.91;;;11.30;64.39
65151;BME280;51918;51.856;0.150;2022-10-16T01:13:54;99650.59;;;11.25;64.31
65151;BME280;51918;51.856;0.150;2022-10-16T01:19:04;99653.09;;;11.40;63.66
65151;BME280;51918;51.856;0.150;2022-10-16T01:24:11;99653.25;;;11.32;63.70
65151;BME280;51918;51.856;0.150;2022-10-16T01:29:17;99651.16;;;11.21;64.38
65151;BME280;51918;51.856;0.150;2022-10-16T01:34:22;99653.13;;;11.19;64.57
65151;BME280;51918;51.856;0.150;2022-10-16T01:39:28;99655.50;;;11.20;65.06
65151;BME280;51918;51.856;0.150;2022-10-16T01:44:34;99667.41;;;11.21;64.93
65151;BME280;51918;51.856;0.150;2022-10-16T01:49:36;99666.22;;;11.24;64.60
65151;BME280;51918;51.856;0.150;2022-10-16T01:54:41;99663.44;;;11.19;65.43
65151;BME280;51918;51.856;0.150;2022-10-16T01:59:46;99667.69;;;11.11;65.93
65151;BME280;51918;51.856;0.150;2022-10-16T02:04:53;99658.22;;;11.12;66.01
65151;BME280;51918;51.856;0.150;2022-10-16T02:09:55;99663.69;;;11.02;66.35
65151;BME280;51918;51.856;0.150;2022-10-16T02:14:57;99651.19;;;10.99;66.04
65151;BME280;51918;51.856;0.150;2022-10-16T02:19:59;99683.47;;;11.02;66.37
65151;BME280;51918;51.856;0.150;2022-10-16T02:25:04;99682.31;;;11.04;65.99
65151;BME280;51918;51.856;0.150;2022-10-16T02:30:13;99703.06;;;11.24;65.25
65151;BME280;51918;51.856;0.150;2022-10-16T02:35:15;99701.03;;;11.20;65.52
65151;BME280;51918;51.856;0.150;2022-10-16T02:40:17;99706.31;;;11.33;64.58
65151;BME280;51918;51.856;0.150;2022-10-16T02:45:20;99711.72;;;11.17;65.07
65151;BME280;51918;51.856;0.150;2022-10-16T02:50:21;99715.16;;;11.02;65.63
65151;BME280;51918;51.856;0.150;2022-10-16T02:55:24;99710.91;;;11.16;65.01
65151;BME280;51918;51.856;0.150;2022-10-16T03:00:26;99713.19;;;11.04;65.43
65151;BME280;51918;51.856;0.150;2022-10-16T03:05:27;99722.94;;;11.09;65.26
65151;BME280;51918;51.856;0.150;2022-10-16T03:10:27;99734.84;;;11.10;65.06
65151;BME280;51918;51.856;0.150;2022-10-16T03:15:30;99742.13;;;11.06;65.62
65151;BME280;51918;51.856;0.150;2022-10-16T03:20:30;99748.28;;;10.90;65.97
65151;BME280;51918;51.856;0.150;2022-10-16T03:25:31;99750.38;;;10.80;66.55
65151;BME280;51918;51.856;0.150;2022-10-16T03:30:33;99761.13;;;10.90;65.53
65151;BME280;51918;51.856;0.150;2022-10-16T03:35:33;99778.63;;;10.95;65.26
65151;BME280;51918;51.856;0.150;2022-10-16T03:40:34;99782.03;;;10.81;65.61
65151;BME280;51918;51.856;0.150;2022-10-16T03:45:36;99787.09;;;10.74;65.72
65151;BME280;51918;51.856;0.150;2022-10-16T03:50:37;99793.50;;;10.78;65.10
65151;BME280;51918;51.856;0.150;2022-10-16T03:55:37;99796.69;;;10.65;65.81
65151;BME280;51918;51.856;0.150;2022-10-16T04:00:41;99801.22;;;10.63;65.16
65151;BME280;51918;51.856;0.150;2022-10-16T04:05:42;99813.94;;;10.50;65.60
65151;BME280;51918;51.856;0.150;2022-10-16T04:10:43;99822.34;;;10.59;65.08
65151;BME280;51918;51.856;0.150;2022-10-16T04:15:46;99821.97;;;10.47;65.56
65151;BME280;51918;51.856;0.150;2022-10-16T04:20:46;99829.69;;;10.47;65.09
65151;BME280;51918;51.856;0.150;2022-10-16T04:25:47;99845.47;;;10.44;65.16
65151;BME280;51918;51.856;0.150;2022-10-16T04:30:49;99847.50;;;10.34;65.33
65151;BME280;51918;51.856;0.150;2022-10-16T04:35:56;99857.25;;;10.38;65.31
65151;BME280;51918;51.856;0.150;2022-10-16T04:40:56;99864.88;;;10.32;65.37
65151;BME280;51918;51.856;0.150;2022-10-16T04:45:59;99879.63;;;10.38;64.77
65151;BME280;51918;51.856;0.150;2022-10-16T04:50:59;99887.41;;;10.29;65.21
65151;BME280;51918;51.856;0.150;2022-10-16T04:56:00;99895.47;;;10.26;65.04
65151;BME280;51918;51.856;0.150;2022-10-16T05:01:02;99911.13;;;10.17;65.52
65151;BME280;51918;51.856;0.150;2022-10-16T05:06:05;99932.09;;;10.05;66.10
65151;BME280;51918;51.856;0.150;2022-10-16T05:11:05;99931.63;;;10.02;66.25
65151;BME280;51918;51.856;0.150;2022-10-16T05:16:07;99938.19;;;10.04;66.29
65151;BME280;51918;51.856;0.150;2022-10-16T05:21:08;99949.63;;;10.02;66.14
65151;BME280;51918;51.856;0.150;2022-10-16T05:26:09;99961.84;;;10.00;66.45
65151;BME280;51918;51.856;0.150;2022-10-16T05:31:11;99961.22;;;9.98;66.44
65151;BME280;51918;51.856;0.150;2022-10-16T05:36:11;99976.19;;;9.94;66.32
65151;BME280;51918;51.856;0.150;2022-10-16T05:41:12;99982.50;;;9.83;66.74
65151;BME280;51918;51.856;0.150;2022-10-16T05:46:14;99987.44;;;9.62;68.17
65151;BME280;51918;51.856;0.150;2022-10-16T05:51:15;99991.19;;;9.74;67.51
65151;BME280;51918;51.856;0.150;2022-10-16T05:56:15;100003.91;;;9.67;67.77
65151;BME280;51918;51.856;0.150;2022-10-16T06:01:18;100006.97;;;9.63;67.99
65151;BME280;51918;51.856;0.150;2022-10-16T06:06:20;100015.16;;;9.66;67.66
65151;BME280;51918;51.856;0.150;2022-10-16T06:11:23;100019.00;;;9.71;67.51
65151;BME280;51918;51.856;0.150;2022-10-16T06:16:26;100035.19;;;9.71;67.28
65151;BME280;51918;51.856;0.150;2022-10-16T06:21:27;100035.03;;;9.73;66.96
65151;BME280;51918;51.856;0.150;2022-10-16T06:26:30;100045.34;;;9.64;67.49
65151;BME280;51918;51.856;0.150;2022-10-16T06:31:32;100058.03;;;9.66;67.20
65151;BME280;51918;51.856;0.150;2022-10-16T06:36:33;100068.31;;;9.66;67.16
65151;BME280;51918;51.856;0.150;2022-10-16T06:41:33;100077.47;;;9.52;67.59
65151;BME280;51918;51.856;0.150;2022-10-16T06:46:35;100078.41;;;9.59;67.22
65151;BME280;51918;51.856;0.150;2022-10-16T06:51:36;100083.53;;;9.59;67.67
65151;BME280;51918;51.856;0.150;2022-10-16T06:56:37;100092.06;;;9.60;67.53
65151;BME280;51918;51.856;0.150;2022-10-16T07:01:39;100099.44;;;9.63;67.59
65151;BME280;51918;51.856;0.150;2022-10-16T07:06:39;100104.72;;;9.61;67.76
65151;BME280;51918;51.856;0.150;2022-10-16T07:11:40;100113.88;;;9.64;68.03
65151;BME280;51918;51.856;0.150;2022-10-16T07:16:42;100130.25;;;9.55;68.83
65151;BME280;51918;51.856;0.150;2022-10-16T07:21:43;100137.16;;;9.62;68.91
65151;BME280;51918;51.856;0.150;2022-10-16T07:26:45;100159.78;;;9.67;68.52
65151;BME280;51918;51.856;0.150;2022-10-16T07:31:48;100166.00;;;9.81;68.36
65151;BME280;51918;51.856;0.150;2022-10-16T07:36:49;100181.56;;;9.87;68.18
65151;BME280;51918;51.856;0.150;2022-10-16T07:41:49;100197.31;;;9.93;68.25
65151;BME280;51918;51.856;0.150;2022-10-16T07:46:51;100196.50;;;10.00;67.94
65151;BME280;51918;51.856;0.150;2022-10-16T07:51:52;100209.28;;;10.08;67.99
65151;BME280;51918;51.856;0.150;2022-10-16T07:56:52;100213.88;;;10.29;67.70
65151;BME280;51918;51.856;0.150;2022-10-16T08:01:54;100214.47;;;10.40;67.33
65151;BME280;51918;51.856;0.150;2022-10-16T08:06:55;100235.66;;;10.50;67.50
65151;BME280;51918;51.856;0.150;2022-10-16T08:11:56;100236.91;;;10.54;67.47
65151;BME280;51918;51.856;0.150;2022-10-16T08:16:58;100240.19;;;10.71;66.97
65151;BME280;51918;51.856;0.150;2022-10-16T08:21:58;100246.03;;;10.88;67.01
65151;BME280;51918;51.856;0.150;2022-10-16T08:26:59;100241.13;;;11.01;66.51
65151;BME280;51918;51.856;0.150;2022-10-16T08:32:01;100261.41;;;11.27;66.37
65151;BME280;51918;51.856;0.150;2022-10-16T08:37:01;100259.06;;;11.93;65.43
65151;BME280;51918;51.856;0.150;2022-10-16T08:42:11;100267.66;;;12.75;63.84
65151;BME280;51918;51.856;0.150;2022-10-16T08:47:22;100287.09;;;13.57;61.16
65151;BME280;51918;51.856;0.150;2022-10-16T08:52:25;100290.34;;;14.64;59.13
65151;BME280;51918;51.856;0.150;2022-10-16T08:57:29;100309.47;;;15.77;56.67
65151;BME280;51918;51.856;0.150;2022-10-16T09:02:32;100306.38;;;16.86;53.98
65151;BME280;51918;51.856;0.150;2022-10-16T09:07:43;100306.66;;;18.10;51.83
65151;BME280;51918;51.856;0.150;2022-10-16T09:12:52;100303.88;;;19.32;48.89
65151;BME280;51918;51.856;0.150;2022-10-16T09:18:01;100311.84;;;20.08;45.91
65151;BME280;51918;51.856;0.150;2022-10-16T09:23:25;100313.44;;;20.61;43.46
65151;BME280;51918;51.856;0.150;2022-10-16T09:28:26;100324.25;;;21.61;43.47
65151;BME280;51918;51.856;0.150;2022-10-16T09:33:29;100323.63;;;22.32;39.07
65151;BME280;51918;51.856;0.150;2022-10-16T09:38:35;100331.25;;;23.10;40.10
65151;BME280;51918;51.856;0.150;2022-10-16T09:43:40;100337.16;;;23.97;37.84
65151;BME280;51918;51.856;0.150;2022-10-16T09:48:47;100330.75;;;24.41;35.65
65151;BME280;51918;51.856;0.150;2022-10-16T09:53:48;100318.22;;;24.63;36.53
65151;BME280;51918;51.856;0.150;2022-10-16T09:58:50;100310.63;;;25.23;33.50
65151;BME280;51918;51.856;0.150;2022-10-16T10:03:56;100313.69;;;25.76;34.97
65151;BME280;51918;51.856;0.150;2022-10-16T10:08:59;100326.88;;;26.47;33.96
65151;BME280;51918;51.856;0.150;2022-10-16T10:14:04;100326.69;;;27.17;32.75
65151;BME280;51918;51.856;0.150;2022-10-16T10:19:13;100328.94;;;27.58;31.37
65151;BME280;51918;51.856;0.150;2022-10-16T10:24:16;100332.31;;;27.88;31.06
65151;BME280;51918;51.856;0.150;2022-10-16T10:29:25;100339.66;;;28.58;28.94
65151;BME280;51918;51.856;0.150;2022-10-16T10:34:42;100342.38;;;28.72;28.99
65151;BME280;51918;51.856;0.150;2022-10-16T10:39:51;100329.69;;;29.20;28.34
65151;BME280;51918;51.856;0.150;2022-10-16T10:45:08;100322.91;;;29.61;26.03
65151;BME280;51918;51.856;0.150;2022-10-16T10:50:22;100330.78;;;30.30;27.12
65151;BME280;51918;51.856;0.150;2022-10-16T10:55:29;100330.84;;;29.47;24.26
65151;BME280;51918;51.856;0.150;2022-10-16T11:00:41;100326.47;;;28.91;27.49
65151;BME280;51918;51.856;0.150;2022-10-16T11:05:50;100330.16;;;29.55;26.20
65151;BME280;51918;51.856;0.150;2022-10-16T11:10:57;100323.69;;;29.48;26.64
65151;BME280;51918;51.856;0.150;2022-10-16T11:16:03;100323.09;;;29.51;25.92
65151;BME280;51918;51.856;0.150;2022-10-16T11:21:10;100319.97;;;28.83;25.73
65151;BME280;51918;51.856;0.150;2022-10-16T11:26:16;100327.38;;;27.81;26.67
65151;BME280;51918;51.856;0.150;2022-10-16T11:31:20;100322.69;;;27.78;26.99
65151;BME280;51918;51.856;0.150;2022-10-16T11:36:27;100326.25;;;27.34;27.05
65151;BME280;51918;51.856;0.150;2022-10-16T11:41:36;100329.00;;;26.89;27.80
65151;BME280;51918;51.856;0.150;2022-10-16T11:46:41;100334.00;;;26.51;27.55
65151;BME280;51918;51.856;0.150;2022-10-16T11:51:49;100330.00;;;26.59;27.93
65151;BME280;51918;51.856;0.150;2022-10-16T11:56:59;100329.28;;;26.48;27.86
65151;BME280;51918;51.856;0.150;2022-10-16T12:02:23;100336.59;;;25.91;29.33
65151;BME280;51918;51.856;0.150;2022-10-16T12:07:30;100332.66;;;26.54;28.44
65151;BME280;51918;51.856;0.150;2022-10-16T12:12:38;100323.69;;;25.90;27.09
65151;BME280;51918;51.856;0.150;2022-10-16T12:17:39;100322.41;;;26.42;29.13
65151;BME280;51918;51.856;0.150;2022-10-16T12:22:48;100327.53;;;26.73;28.77
65151;BME280;51918;51.856;0.150;2022-10-16T12:27:58;100336.38;;;26.43;29.58
65151;BME280;51918;51.856;0.150;2022-10-16T12:33:01;100322.97;;;25.58;28.15
65151;BME280;51918;51.856;0.150;2022-10-16T12:38:15;100332.22;;;25.15;28.66
65151;BME280;51918;51.856;0.150;2022-10-16T12:43:38;100335.91;;;25.40;28.74
65151;BME280;51918;51.856;0.150;2022-10-16T12:48:40;100328.78;;;25.45;28.16
65151;BME280;51918;51.856;0.150;2022-10-16T12:53:42;100334.06;;;24.15;29.92
65151;BME280;51918;51.856;0.150;2022-10-16T12:58:54;100333.47;;;23.56;30.79
65151;BME280;51918;51.856;0.150;2022-10-16T13:04:10;100320.38;;;23.61;31.59
65151;BME280;51918;51.856;0.150;2022-10-16T13:09:27;100331.78;;;23.12;31.03
65151;BME280;51918;51.856;0.150;2022-10-16T13:14:44;100322.97;;;22.91;31.85
65151;BME280;51918;51.856;0.150;2022-10-16T13:19:52;100321.47;;;22.73;32.25
65151;BME280;51918;51.856;0.150;2022-10-16T13:25:15;100316.09;;;22.14;32.46
65151;BME280;51918;51.856;0.150;2022-10-16T13:30:18;100318.56;;;21.81;33.02
65151;BME280;51918;51.856;0.150;2022-10-16T13:35:24;100325.34;;;21.65;33.50
65151;BME280;51918;51.856;0.150;2022-10-16T13:40:26;100325.19;;;21.55;33.81
65151;BME280;51918;51.856;0.150;2022-10-16T13:45:27;100333.78;;;21.34;34.39
65151;BME280;51918;51.856;0.150;2022-10-16T13:50:27;100331.63;;;20.85;35.15
65151;BME280;51918;51.856;0.150;2022-10-16T13:55:31;100312.34;;;20.74;36.36
65151;BME280;51918;51.856;0.150;2022-10-16T14:00:32;100303.97;;;20.72;35.33
65151;BME280;51918;51.856;0.150;2022-10-16T14:05:33;100293.22;;;20.57;35.77
65151;BME280;51918;51.856;0.150;2022-10-16T14:10:35;100301.84;;;20.28;36.57
65151;BME280;51918;51.856;0.150;2022-10-16T14:15:36;100302.66;;;19.94;36.92
65151;BME280;51918;51.856;0.150;2022-10-16T14:20:37;100298.72;;;19.79;36.89
65151;BME280;51918;51.856;0.150;2022-10-16T14:25:39;100298.38;;;19.76;36.93
65151;BME280;51918;51.856;0.150;2022-10-16T14:30:50;100303.16;;;19.25;38.29
65151;BME280;51918;51.856;0.150;2022-10-16T14:36:03;100296.91;;;19.14;38.34
65151;BME280;51918;51.856;0.150;2022-10-16T14:41:07;100303.78;;;18.97;38.54
65151;BME280;51918;51.856;0.150;2022-10-16T14:46:13;100288.03;;;18.92;38.87
65151;BME280;51918;51.856;0.150;2022-10-16T14:51:15;100289.69;;;18.74;39.71
65151;BME280;51918;51.856;0.150;2022-10-16T14:56:19;100286.00;;;18.94;40.01
65151;BME280;51918;51.856;0.150;2022-10-16T15:01:20;100281.56;;;18.94;40.09
65151;BME280;51918;51.856;0.150;2022-10-16T15:06:21;100298.59;;;18.30;42.11
65151;BME280;51918;51.856;0.150;2022-10-16T15:11:23;100305.47;;;18.05;43.90
65151;BME280;51918;51.856;0.150;2022-10-16T15:16:23;100308.63;;;17.71;45.41
65151;BME280;51918;51.856;0.150;2022-10-16T15:21:25;100317.50;;;17.56;45.85
65151;BME280;51918;51.856;0.150;2022-10-16T15:26:28;100308.13;;;17.55;46.61
65151;BME280;51918;51.856;0.150;2022-10-16T15:31:29;100303.06;;;17.60;46.68
65151;BME280;51918;51.856;0.150;2022-10-16T15:36:32;100306.66;;;17.59;46.64
65151;BME280;51918;51.856;0.150;2022-10-16T15:41:34;100316.22;;;17.65;46.64
65151;BME280;51918;51.856;0.150;2022-10-16T15:46:35;100305.91;;;17.34;47.88
65151;BME280;51918;51.856;0.150;2022-10-16T15:51:37;100310.97;;;17.22;48.24
65151;BME280;51918;51.856;0.150;2022-10-16T15:56:40;100294.66;;;17.08;48.75
65151;BME280;51918;51.856;0.150;2022-10-16T16:01:40;100295.16;;;16.92;49.82
65151;BME280;51918;51.856;0.150;2022-10-16T16:06:41;100289.84;;;16.80;50.40
65151;BME280;51918;51.856;0.150;2022-10-16T16:11:43;100268.44;;;16.85;49.80
65151;BME280;51918;51.856;0.150;2022-10-16T16:16:43;100293.25;;;16.74;50.25
65151;BME280;51918;51.856;0.150;2022-10-16T16:21:44;100273.97;;;16.43;52.06
65151;BME280;51918;51.856;0.150;2022-10-16T16:26:46;100261.84;;;16.30;52.93
65151;BME280;51918;51.856;0.150;2022-10-16T16:31:46;100258.31;;;16.18;53.05
65151;BME280;51918;51.856;0.150;2022-10-16T16:36:47;100247.53;;;16.14;53.13
65151;BME280;51918;51.856;0.150;2022-10-16T16:41:49;100241.22;;;15.97;54.35
65151;BME280;51918;51.856;0.150;2022-10-16T16:46:50;100259.59;;;15.89;54.90
65151;BME280;51918;51.856;0.150;2022-10-16T16:51:52;100241.44;;;15.69;55.93
65151;BME280;51918;51.856;0.150;2022-10-16T16:56:54;100239.66;;;15.63;56.33
65151;BME280;51918;51.856;0.150;2022-10-16T17:01:55;100250.63;;;15.65;55.96
65151;BME280;51918;51.856;0.150;2022-10-16T17:06:55;100268.78;;;15.65;56.50
65151;BME280;51918;51.856;0.150;2022-10-16T17:11:57;100257.81;;;15.56;56.96
65151;BME280;51918;51.856;0.150;2022-10-16T17:16:58;100248.03;;;15.51;57.51
65151;BME280;51918;51.856;0.150;2022-10-16T17:21:59;100258.81;;;15.42;58.30
65151;BME280;51918;51.856;0.150;2022-10-16T17:27:01;100274.34;;;15.22;60.54
65151;BME280;51918;51.856;0.150;2022-10-16T17:32:01;100258.56;;;15.03;61.76
65151;BME280;51918;51.856;0.150;2022-10-16T17:37:02;100253.19;;;14.98;61.46
65151;BME280;51918;51.856;0.150;2022-10-16T17:42:04;100238.25;;;14.80;63.18
65151;BME280;51918;51.856;0.150;2022-10-16T17:47:04;100246.81;;;15.07;61.54
65151;BME280;51918;51.856;0.150;2022-10-16T17:52:05;100251.59;;;14.97;62.02
65151;BME280;51918;51.856;0.150;2022-10-16T17:57:07;100264.34;;;14.92;62.74
65151;BME280;51918;51.856;0.150;2022-10-16T18:02:08;100259.75;;;14.87;63.75
65151;BME280;51918;51.856;0.150;2022-10-16T18:07:09;100251.59;;;14.90;63.91
65151;BME280;51918;51.856;0.150;2022-10-16T18:12:11;100267.09;;;14.84;65.09
65151;BME280;51918;51.856;0.150;2022-10-16T18:17:11;100273.44;;;14.74;65.90
65151;BME280;51918;51.856;0.150;2022-10-16T18:22:12;100255.50;;;14.73;65.49
65151;BME280;51918;51.856;0.150;2022-10-16T18:27:14;100262.00;;;14.49;67.49
65151;BME280;51918;51.856;0.150;2022-10-16T18:32:14;100264.13;;;14.32;68.95
65151;BME280;51918;51.856;0.150;2022-10-16T18:37:15;100266.63;;;14.60;66.51
65151;BME280;51918;51.856;0.150;2022-10-16T18:42:17;100251.72;;;14.75;66.06
65151;BME280;51918;51.856;0.150;2022-10-16T18:47:18;100263.69;;;14.76;65.65
65151;BME280;51918;51.856;0.150;2022-10-16T18:52:19;100255.13;;;14.76;65.78
65151;BME280;51918;51.856;0.150;2022-10-16T18:57:21;100241.63;;;14.81;66.34
65151;BME280;51918;51.856;0.150;2022-10-16T19:02:21;100228.63;;;14.67;67.58
65151;BME280;51918;51.856;0.150;2022-10-16T19:07:22;100223.44;;;14.74;66.39
65151;BME280;51918;51.856;0.150;2022-10-16T19:12:24;100229.22;;;14.76;66.79
65151;BME280;51918;51.856;0.150;2022-10-16T19:17:24;100221.69;;;14.81;66.81
65151;BME280;51918;51.856;0.150;2022-10-16T19:22:25;100210.09;;;14.70;67.16
65151;BME280;51918;51.856;0.150;2022-10-16T19:27:27;100200.69;;;14.56;68.47
65151;BME280;51918;51.856;0.150;2022-10-16T19:32:28;100194.31;;;14.52;68.55
65151;BME280;51918;51.856;0.150;2022-10-16T19:37:28;100170.97;;;14.38;69.18
65151;BME280;51918;51.856;0.150;2022-10-16T19:42:30;100162.03;;;14.41;69.34
65151;BME280;51918;51.856;0.150;2022-10-16T19:47:31;100161.81;;;14.29;69.94
65151;BME280;51918;51.856;0.150;2022-10-16T19:52:31;100177.75;;;14.33;70.19
65151;BME280;51918;51.856;0.150;2022-10-16T19:57:34;100169.56;;;14.29;70.27
65151;BME280;51918;51.856;0.150;2022-10-16T20:02:35;100161.81;;;14.29;70.73
65151;BME280;51918;51.856;0.150;2022-10-16T20:07:35;100162.81;;;14.28;70.69
65151;BME280;51918;51.856;0.150;2022-10-16T20:12:37;100172.94;;;14.30;70.98
65151;BME280;51918;51.856;0.150;2022-10-16T20:17:38;100167.41;;;14.33;70.75
65151;BME280;51918;51.856;0.150;2022-10-16T20:22:39;100151.06;;;14.32;70.73
65151;BME280;51918;51.856;0.150;2022-10-16T20:27:40;100147.09;;;14.36;71.17
65151;BME280;51918;51.856;0.150;2022-10-16T20:32:41;100136.38;;;14.40;71.11
65151;BME280;51918;51.856;0.150;2022-10-16T20:37:42;100130.75;;;14.29;71.41
65151;BME280;51918;51.856;0.150;2022-10-16T20:42:44;100120.78;;;14.20;72.23
65151;BME280;51918;51.856;0.150;2022-10-16T20:47:45;100124.38;;;14.18;72.24
65151;BME280;51918;51.856;0.150;2022-10-16T20:52:45;100114.44;;;14.22;72.15
65151;BME280;51918;51.856;0.150;2022-10-16T20:57:47;100123.94;;;14.15;72.94
65151;BME280;51918;51.856;0.150;2022-10-16T21:02:48;100124.16;;;14.13;72.96
65151;BME280;51918;51.856;0.150;2022-10-16T21:07:49;100121.78;;;14.25;73.16
65151;BME280;51918;51.856;0.150;2022-10-16T21:12:53;100123.19;;;14.28;72.29
65151;BME280;51918;51.856;0.150;2022-10-16T21:17:54;100114.22;;;14.17;73.24
65151;BME280;51918;51.856;0.150;2022-10-16T21:22:54;100121.97;;;14.24;73.32
65151;BME280;51918;51.856;0.150;2022-10-16T21:27:56;100128.75;;;14.25;73.14
65151;BME280;51918;51.856;0.150;2022-10-16T21:32:57;100134.16;;;14.36;73.10
65151;BME280;51918;51.856;0.150;2022-10-16T21:37:57;100148.28;;;14.27;73.64
65151;BME280;51918;51.856;0.150;2022-10-16T21:42:59;100133.13;;;14.17;74.38
65151;BME280;51918;51.856;0.150;2022-10-16T21:48:00;100111.16;;;14.00;76.64
65151;BME280;51918;51.856;0.150;2022-10-16T21:53:01;100100.91;;;14.27;75.26
65151;BME280;51918;51.856;0.150;2022-10-16T21:58:03;100082.97;;;14.12;76.78
65151;BME280;51918;51.856;0.150;2022-10-16T22:03:03;100076.81;;;14.20;76.55
65151;BME280;51918;51.856;0.150;2022-10-16T22:08:04;100079.03;;;14.29;76.25
65151;BME280;51918;51.856;0.150;2022-10-16T22:13:06;100056.53;;;14.36;76.21
65151;BME280;51918;51.856;0.150;2022-10-16T22:18:07;100064.31;;;14.50;76.07
65151;BME280;51918;51.856;0.150;2022-10-16T22:23:07;100068.31;;;14.46;76.84
65151;BME280;51918;51.856;0.150;2022-10-16T22:28:09;100055.34;;;14.46;77.29
65151;BME280;51918;51.856;0.150;2022-10-16T22:33:10;100060.34;;;14.61;76.57
65151;BME280;51918;51.856;0.150;2022-10-16T22:38:11;100075.06;;;14.60;77.22
65151;BME280;51918;51.856;0.150;2022-10-16T22:43:13;100055.97;;;14.81;76.08
65151;BME280;51918;51.856;0.150;2022-10-16T22:48:13;100057.53;;;14.75;77.19
65151;BME280;51918;51.856;0.150;2022-10-16T22:53:14;100051.97;;;14.78;77.67
65151;BME280;51918;51.856;0.150;2022-10-16T22:58:16;100043.41;;;14.98;76.93
65151;BME280;51918;51.856;0.150;2022-10-16T23:03:17;100042.78;;;15.09;76.96
65151;BME280;51918;51.856;0.150;2022-10-16T23:08:17;100034.59;;;15.19;76.84
65151;BME280;51918;51.856;0.150;2022-10-16T23:13:19;100037.31;;;15.31;77.06
65151;BME280;51918;51.856;0.150;2022-10-16T23:18:20;100032.94;;;15.31;77.52
65151;BME280;51918;51.856;0.150;2022-10-16T23:23:20;100038.31;;;15.36;77.55
65151;BME280;51918;51.856;0.150;2022-10-16T23:28:22;100039.13;;;15.30;78.32
65151;BME280;51918;51.856;0.150;2022-10-16T23:33:23;100048.69;;;15.36;78.39
65151;BME280;51918;51.856;0.150;2022-10-16T23:38:24;100029.53;;;15.37;78.80
65151;BME280;51918;51.856;0.150;2022-10-16T23:43:26;100046.59;;;15.58;77.76
65151;BME280;51918;51.856;0.150;2022-10-16T23:48:27;100028.72;;;15.44;78.79
65151;BME280;51918;51.856;0.150;2022-10-16T23:53:28;100036.03;;;15.60;78.19
65151;BME280;51918;51.856;0.150;2022-10-16T23:58:30;100039.41;;;15.60;78.19
